Time;durP1;ratioP1;P1;durP2;ratioP2;P2;SDS_P1;SDS_P2;PMS_P1;PMS_P2;Temp;Humidity;BMP_temperature;BMP_pressure;BME280_temperature;BME280_humidity;BME280_pressure;Samples;Min_cycle;Max_cycle;Signal;HPM_P1;HPM_P2
2023/02/10 00:00:40;;;;;;;51.42;30.12;;;;;;;0.26;62.46;102680.55;1716287;83;21248;-57
2023/02/10 00:04:03;;;;;;;51.48;29.42;;;;;;;0.25;62.52;102680.15;1707487;83;21746;-56
2023/02/10 00:07:18;;;;;;;61.37;31.52;;;;;;;0.24;62.57;102679.72;1706811;83;21651;-57
2023/02/10 00:10:31;;;;;;;64.42;33.90;;;;;;;0.24;62.61;102686.45;1687179;83;21770;-57
2023/02/10 00:13:47;;;;;;;65.37;34.83;;;;;;;0.23;62.58;102679.31;1718242;83;21245;-56
2023/02/10 00:17:00;;;;;;;62.13;34.00;;;;;;;0.23;62.56;102677.08;1713150;83;21210;-57
2023/02/10 00:20:10;;;;;;;67.58;36.25;;;;;;;0.18;62.64;102679.94;1697163;83;21233;-57
2023/02/10 00:23:21;;;;;;;70.52;37.38;;;;;;;0.16;62.61;102676.41;1706562;79;21233;-57
2023/02/10 00:26:38;;;;;;;69.53;37.38;;;;;;;0.14;62.59;102670.68;1728269;81;21269;-56
2023/02/10 00:29:53;;;;;;;78.42;37.45;;;;;;;0.14;62.62;102670.68;1759936;81;21217;-56
2023/02/10 00:33:04;;;;;;;59.35;33.53;;;;;;;0.11;62.64;102672.14;1759993;81;21209;-57
2023/02/10 00:36:24;;;;;;;58.58;32.53;;;;;;;0.08;62.63;102663.69;1710866;82;21229;-56
2023/02/10 00:39:45;;;;;;;55.40;30.88;;;;;;;0.06;62.68;102663.34;1714674;82;21403;-57
2023/02/10 00:42:51;;;;;;;58.13;31.57;;;;;;;0.00;62.58;102666.65;1695536;84;21229;-57
2023/02/10 00:45:56;;;;;;;49.30;28.70;;;;;;;-0.03;62.59;102664.52;1677793;84;21293;-57
2023/02/10 00:49:08;;;;;;;49.27;28.87;;;;;;;-0.06;62.69;102660.59;1759581;81;21289;-56
2023/02/10 00:52:21;;;;;;;54.70;30.82;;;;;;;-0.10;62.71;102654.46;1703054;83;21210;-56
2023/02/10 00:55:37;;;;;;;48.38;28.52;;;;;;;-0.14;62.73;102644.72;1749246;81;21234;-56
2023/02/10 00:58:52;;;;;;;53.45;29.82;;;;;;;-0.16;62.74;102660.03;1716746;83;21230;-57
2023/02/10 01:02:06;;;;;;;51.33;29.35;;;;;;;-0.23;62.63;102653.12;1749877;81;21237;-57
2023/02/10 01:05:15;;;;;;;49.83;29.02;;;;;;;-0.31;62.53;102654.30;1732681;81;21281;-56
2023/02/10 01:08:30;;;;;;;52.17;28.92;;;;;;;-0.38;62.50;102646.03;1748759;82;21802;-57
2023/02/10 01:11:46;;;;;;;49.58;27.80;;;;;;;-0.44;62.52;102640.83;1684503;83;21794;-57
2023/02/10 01:15:03;;;;;;;53.85;29.95;;;;;;;-0.50;62.54;102653.14;1712633;82;21758;-56
2023/02/10 01:18:21;;;;;;;49.05;29.05;;;;;;;-0.56;62.61;102638.56;1706804;83;21762;-56
2023/02/10 01:21:48;;;;;;;49.00;28.20;;;;;;;-0.64;62.67;102636.58;1709572;83;21253;-57
2023/02/10 01:25:10;;;;;;;50.55;29.05;;;;;;;-0.74;62.68;102627.05;1722222;81;21771;-56
2023/02/10 01:28:39;;;;;;;52.98;30.02;;;;;;;-0.84;62.72;102631.84;1704647;83;21723;-57
2023/02/10 01:31:52;;;;;;;53.50;30.45;;;;;;;-0.95;62.67;102633.13;1727460;81;21245;-57
2023/02/10 01:35:04;;;;;;;60.12;32.38;;;;;;;-1.04;62.65;102627.56;1701576;83;21241;-57
2023/02/10 01:38:16;;;;;;;;;;;;;;;-1.11;62.77;102628.66;1739103;81;21244;-57
2023/02/10 01:41:30;;;;;;;62.70;32.48;;;;;;;-1.17;62.85;102624.83;1739444;81;20271;-56
2023/02/10 01:44:52;;;;;;;52.13;28.73;;;;;;;-1.24;62.88;102623.73;1696745;84;21789;-56
2023/02/10 01:48:02;;;;;;;55.15;30.70;;;;;;;-1.31;62.93;102620.34;1734502;81;21766;-57
2023/02/10 01:51:17;;;;;;;53.63;29.40;;;;;;;-1.36;62.99;102618.73;1701026;84;21371;-56
2023/02/10 01:54:35;;;;;;;51.98;28.40;;;;;;;-1.41;63.06;102613.96;1745636;81;21202;-57
2023/02/10 01:57:48;;;;;;;50.63;28.70;;;;;;;-1.47;62.99;102610.98;1734340;81;21888;-57
2023/02/10 02:01:02;;;;;;;49.58;27.90;;;;;;;-1.54;62.97;102608.94;1728913;81;21394;-56
2023/02/10 02:04:13;;;;;;;46.25;27.35;;;;;;;-1.59;62.99;102613.55;1701415;83;21232;-56
2023/02/10 02:07:27;;;;;;;47.62;29.25;;;;;;;-1.65;62.99;102620.45;1735805;81;21186;-57
2023/02/10 02:10:59;;;;;;;53.80;29.60;;;;;;;-1.71;62.99;102611.69;1723646;81;21254;-57
2023/02/10 02:14:51;;;;;;;52.27;29.85;;;;;;;-1.78;62.97;102612.35;1701174;84;21279;-57
2023/02/10 02:18:40;;;;;;;48.20;27.85;;;;;;;-1.93;62.70;102614.55;1743871;81;21648;-57
2023/02/10 02:22:24;;;;;;;47.60;27.48;;;;;;;-2.10;62.56;102609.67;1701046;83;21346;-57
2023/02/10 02:25:56;;;;;;;51.75;28.38;;;;;;;-2.22;62.48;102620.71;1748288;80;21225;-56
2023/02/10 02:29:29;;;;;;;50.03;28.38;;;;;;;-2.31;62.53;102622.30;1759793;81;21190;-57
2023/02/10 02:32:53;;;;;;;51.92;28.57;;;;;;;-2.36;62.65;102614.83;1718364;81;21197;-57
2023/02/10 02:36:13;;;;;;;53.90;28.10;;;;;;;-2.41;62.72;102623.94;1726800;82;21390;-57
2023/02/10 02:39:29;;;;;;;51.10;27.30;;;;;;;-2.48;62.74;102622.31;1710035;84;21387;-57
2023/02/10 02:42:41;;;;;;;47.30;26.85;;;;;;;-2.55;62.75;102624.75;1761063;80;21177;-57
2023/02/10 02:45:59;;;;;;;44.85;24.60;;;;;;;-2.60;62.73;102626.17;1726774;82;21423;-57
2023/02/10 02:49:28;;;;;;;49.70;26.60;;;;;;;-2.67;62.74;102623.23;1710049;84;22054;-57
2023/02/10 02:53:03;;;;;;;47.65;25.70;;;;;;;-2.72;62.77;102630.95;1760062;81;21213;-57
2023/02/10 02:56:47;;;;;;;44.23;25.45;;;;;;;-2.77;62.80;102628.39;1727859;82;21900;-57
2023/02/10 03:00:10;;;;;;;43.02;26.70;;;;;;;-2.83;62.83;102623.64;1759651;81;21763;-56
2023/02/10 03:03:23;;;;;;;48.28;27.07;;;;;;;-2.89;62.84;102622.45;1759846;81;21288;-56
2023/02/10 03:06:37;;;;;;;52.88;31.20;;;;;;;-2.92;62.90;102622.52;1705339;82;21727;-56
2023/02/10 03:09:50;;;;;;;53.10;30.77;;;;;;;-2.96;62.91;102621.70;1689454;84;21213;-56
2023/02/10 03:12:58;;;;;;;46.33;27.93;;;;;;;-2.99;62.91;102611.06;1705344;84;21755;-57
2023/02/10 03:16:26;;;;;;;52.75;30.45;;;;;;;-3.04;62.86;102612.97;1669484;84;21234;-56
2023/02/10 03:19:40;;;;;;;50.08;27.90;;;;;;;-3.12;62.77;102613.60;1748676;81;21406;-57
2023/02/10 03:22:52;;;;;;;;;;;;;;;-3.20;62.74;102612.89;1729990;82;21182;-57
2023/02/10 03:26:05;;;;;;;51.40;29.20;;;;;;;-3.25;62.80;102614.81;1741115;81;20224;-56
2023/02/10 03:29:19;;;;;;;50.45;30.90;;;;;;;-3.31;62.86;102613.59;1731282;82;21209;-56
2023/02/10 03:32:34;;;;;;;59.65;32.08;;;;;;;-3.36;62.89;102611.47;1707977;83;21225;-57
2023/02/10 03:35:49;;;;;;;59.55;31.12;;;;;;;-3.41;62.93;102614.25;1760080;81;21746;-56
2023/02/10 03:39:00;;;;;;;58.98;30.77;;;;;;;-3.46;62.94;102603.23;1760093;81;21806;-58
2023/02/10 03:42:11;;;;;;;62.73;30.35;;;;;;;-3.51;62.96;102606.46;1727643;82;21190;-58
2023/02/10 03:45:22;;;;;;;56.70;30.92;;;;;;;-3.55;62.96;102608.80;1759888;81;21197;-58
2023/02/10 03:48:33;;;;;;;62.60;31.23;;;;;;;-3.61;62.98;102614.25;1685943;83;21541;-58
2023/02/10 03:51:45;;;;;;;58.23;29.70;;;;;;;-3.67;62.94;102614.38;1730928;82;21218;-58
2023/02/10 03:54:56;;;;;;;65.15;30.23;;;;;;;-3.75;62.92;102616.34;1733292;82;21367;-57
2023/02/10 03:58:08;;;;;;;61.55;31.87;;;;;;;-3.81;62.88;102619.14;1760159;81;21380;-57
2023/02/10 04:01:22;;;;;;;66.72;35.98;;;;;;;-3.88;62.96;102620.16;1706795;82;21256;-57
2023/02/10 04:04:34;;;;;;;80.53;40.70;;;;;;;-3.92;63.07;102622.48;1759976;81;21190;-56
2023/02/10 04:07:46;;;;;;;50.63;26.85;;;;;;;-4.00;63.17;102616.41;1732703;82;21245;-58
2023/02/10 04:10:58;;;;;;;121.57;54.85;;;;;;;-4.08;63.23;102621.91;1759991;81;21229;-58
2023/02/10 04:14:07;;;;;;;65.10;31.33;;;;;;;-4.14;63.24;102621.14;1731392;82;21213;-58
2023/02/10 04:17:18;;;;;;;73.83;37.50;;;;;;;-4.19;63.24;102625.68;1731409;82;21193;-58
2023/02/10 04:20:31;;;;;;;79.62;40.38;;;;;;;-4.26;63.23;102616.89;1714383;83;21240;-56
2023/02/10 04:23:45;;;;;;;55.78;30.88;;;;;;;-4.32;63.24;102618.78;1760356;80;21201;-56
2023/02/10 04:26:56;;;;;;;52.43;29.42;;;;;;;-4.37;63.22;102623.33;1760005;81;21194;-56
2023/02/10 04:30:12;;;;;;;47.50;26.70;;;;;;;-4.44;63.18;102623.92;1711583;82;21273;-56
2023/02/10 04:33:28;;;;;;;47.88;26.60;;;;;;;-4.50;63.14;102629.82;1722513;80;21224;-57
2023/02/10 04:36:41;;;;;;;46.65;26.87;;;;;;;-4.57;63.16;102616.53;1707051;83;21193;-57
2023/02/10 04:39:52;;;;;;;56.47;29.60;;;;;;;-4.61;63.14;102628.64;1708634;82;21785;-57
2023/02/10 04:43:03;;;;;;;48.65;28.30;;;;;;;-4.68;63.05;102628.34;1718495;82;21972;-56
2023/02/10 04:46:13;;;;;;;58.65;31.77;;;;;;;-4.77;62.88;102628.02;1707073;82;21765;-56
2023/02/10 04:49:31;;;;;;;63.33;32.13;;;;;;;-4.86;62.68;102626.84;1707912;82;21308;-56
2023/02/10 04:52:40;;;;;;;60.48;32.38;;;;;;;-4.87;62.82;102623.72;1708846;82;21304;-56
2023/02/10 04:55:49;;;;;;;60.65;33.13;;;;;;;-4.89;62.90;102628.67;1706021;83;21774;-56
2023/02/10 04:58:55;;;;;;;68.62;34.85;;;;;;;-4.91;62.90;102614.00;1711134;82;21272;-57
2023/02/10 05:02:06;;;;;;;67.27;35.52;;;;;;;-4.87;63.07;102611.70;1711028;82;21189;-57
2023/02/10 05:05:20;;;;;;;67.67;36.45;;;;;;;-4.83;63.20;102617.44;1715261;82;21766;-57
2023/02/10 05:08:34;;;;;;;66.77;35.80;;;;;;;-4.80;63.25;102621.39;1706750;83;21245;-58
2023/02/10 05:11:53;;;;;;;66.85;36.45;;;;;;;-4.77;63.30;102628.02;1690363;82;21332;-56
2023/02/10 05:15:12;;;;;;;75.42;44.00;;;;;;;-4.74;63.40;102619.09;1715899;82;21233;-56
2023/02/10 05:18:23;;;;;;;81.53;44.27;;;;;;;-4.69;63.43;102627.44;1703828;83;21880;-56
2023/02/10 05:21:32;;;;;;;79.15;44.13;;;;;;;-4.65;63.54;102625.61;1720295;82;21240;-57
2023/02/10 05:24:39;;;;;;;78.02;43.78;;;;;;;-4.61;63.65;102620.63;1706659;82;21236;-58
2023/02/10 05:27:49;;;;;;;75.10;39.65;;;;;;;-4.55;63.67;102631.68;1696357;84;21228;-57
2023/02/10 05:30:59;;;;;;;76.37;39.63;;;;;;;-4.53;63.66;102629.87;1732875;82;21222;-57
2023/02/10 05:34:12;;;;;;;69.30;38.10;;;;;;;-4.51;63.64;102626.25;1705280;83;21391;-57
2023/02/10 05:37:25;;;;;;;65.45;35.92;;;;;;;-4.49;63.58;102630.23;1750677;82;21182;-58
2023/02/10 05:40:36;;;;;;;66.57;37.17;;;;;;;-4.50;63.53;102625.33;1705272;84;21592;-58
2023/02/10 05:43:44;;;;;;;67.00;36.63;;;;;;;-4.49;63.45;102627.12;1696962;84;21395;-56
2023/02/10 05:46:55;;;;;;;70.45;36.68;;;;;;;-4.49;63.41;102620.88;1696879;84;21270;-56
2023/02/10 05:50:06;;;;;;;72.92;38.92;;;;;;;-4.48;63.44;102621.30;1707076;83;21241;-57
2023/02/10 05:53:14;;;;;;;88.40;44.30;;;;;;;-4.45;63.49;102621.23;1725056;83;21756;-57
2023/02/10 05:56:29;;;;;;;77.45;40.15;;;;;;;-4.42;63.50;102623.89;1714006;83;21217;-57
2023/02/10 06:00:02;;;;;;;90.00;44.40;;;;;;;-4.40;63.50;102615.36;1715039;83;21248;-57
2023/02/10 06:04:29;;;;;;;77.00;39.92;;;;;;;-4.37;63.53;102617.98;1714156;83;21428;-58
2023/02/10 06:07:37;;;;;;;88.90;46.30;;;;;;;-4.31;63.62;102622.77;1760216;81;21209;-57
2023/02/10 06:11:01;;;;;;;88.40;44.98;;;;;;;-4.23;63.65;102625.33;1729594;81;21232;-57
2023/02/10 06:14:13;;;;;;;88.82;47.83;;;;;;;-4.17;63.67;102622.53;1744943;82;21354;-58
2023/02/10 06:17:28;;;;;;;96.00;49.03;;;;;;;-4.09;63.78;102624.13;1744872;81;21460;-57
2023/02/10 06:20:40;;;;;;;92.33;50.52;;;;;;;-3.97;63.90;102615.00;1723453;82;21290;-57
2023/02/10 06:23:59;;;;;;;100.18;50.23;;;;;;;-3.85;64.02;102625.00;1713784;82;21452;-58
2023/02/10 06:27:22;;;;;;;147.80;64.53;;;;;;;-3.74;64.10;102617.64;1714328;83;21211;-57
2023/02/10 06:30:52;;;;;;;84.60;45.50;;;;;;;-3.60;64.12;102624.92;1735610;82;21232;-58
2023/02/10 06:34:45;;;;;;;77.42;41.35;;;;;;;-3.49;64.17;102618.89;1742249;81;21257;-57
2023/02/10 06:38:05;;;;;;;61.68;34.35;;;;;;;-3.35;64.27;102614.59;1753916;80;21721;-58
2023/02/10 06:41:28;;;;;;;65.08;35.05;;;;;;;-3.24;64.31;102612.11;1743438;80;21196;-59
2023/02/10 06:44:47;;;;;;;55.80;29.48;;;;;;;-3.16;64.31;102615.49;1780913;80;21180;-59
2023/02/10 06:48:25;;;;;;;56.33;29.32;;;;;;;-3.06;64.32;102617.50;1780685;80;21220;-57
2023/02/10 06:51:51;;;;;;;59.75;31.45;;;;;;;-3.01;64.32;102611.55;1777277;76;21207;-57
2023/02/10 06:55:43;;;;;;;62.65;31.70;;;;;;;-2.92;64.41;102611.36;1713486;82;21383;-56
2023/02/10 06:58:53;;;;;;;48.87;26.90;;;;;;;-2.80;64.48;102611.50;1713253;84;21411;-56
2023/02/10 07:06:06;;;;;;;51.80;27.82;;;;;;;-2.54;64.60;102592.53;1829990;76;22269;-56
2023/02/10 07:09:18;;;;;;;52.62;28.23;;;;;;;-2.50;64.67;102599.56;1774752;79;21263;-56
2023/02/10 07:12:51;;;;;;;49.53;28.50;;;;;;;-2.39;64.72;102592.57;1771288;80;21205;-57
2023/02/10 07:20:12;;;;;;;58.60;30.48;;;;;;;-2.15;64.75;102575.83;1813602;76;22321;-56
2023/02/10 07:23:41;;;;;;;58.00;30.17;;;;;;;-2.13;64.82;102569.52;1700187;81;21704;-58
2023/02/10 07:27:35;;;;;;;56.33;30.48;;;;;;;-2.01;64.86;102574.52;1680004;80;21519;-60
2023/02/10 08:14:16;;;;;;;73.42;36.00;;;;;;;-0.73;64.39;102541.43;1816901;76;20253;-56
2023/02/10 08:21:26;;;;;;;;;;;;;;;-0.60;64.46;102546.33;1698512;81;20246;-57
2023/02/10 08:25:05;;;;;;;57.80;28.50;;;;;;;-0.52;64.39;102535.30;1719782;80;20208;-56
2023/02/10 08:55:14;;;;;;;40.17;22.37;;;;;;;0.02;64.02;102517.17;1809572;76;22359;-56
2023/02/10 08:58:50;;;;;;;44.70;23.05;;;;;;;0.02;64.06;102511.79;1694914;83;21624;-57
2023/02/10 09:02:36;;;;;;;39.13;20.45;;;;;;;0.12;64.11;102520.40;1660580;85;21319;-57
2023/02/10 09:07:13;;;;;;;37.35;21.25;;;;;;;0.23;64.14;102516.38;1669918;85;21343;-58
2023/02/10 09:10:57;;;;;;;44.73;26.20;;;;;;;0.30;64.06;102500.41;1702315;78;21204;-56
2023/02/10 09:14:53;;;;;;;38.13;20.68;;;;;;;0.40;64.02;102495.54;1694377;83;21210;-56
2023/02/10 09:18:50;;;;;;;31.40;17.60;;;;;;;0.66;64.04;102477.85;1874578;75;22327;-56
2023/02/10 09:26:15;;;;;;;32.58;19.42;;;;;;;0.69;63.84;102457.05;1819052;76;21272;-56
2023/02/10 09:34:17;;;;;;;39.50;19.25;;;;;;;0.90;63.93;102444.50;1846753;76;23466;-56
2023/02/10 09:49:12;;;;;;;33.48;17.75;;;;;;;1.20;63.79;102436.45;1877227;76;22603;-56
2023/02/10 09:53:07;;;;;;;36.90;18.85;;;;;;;1.19;63.88;102433.36;1769455;81;21927;-56
2023/02/10 10:00:11;;;;;;;28.67;16.97;;;;;;;1.41;63.83;102428.78;1762919;81;21522;-56
2023/02/10 10:03:58;;;;;;;29.52;16.48;;;;;;;1.64;63.77;102422.33;1852313;74;22329;-56
2023/02/10 10:07:52;;;;;;;28.15;15.32;;;;;;;1.67;63.79;102419.48;1785638;78;21213;-57
2023/02/10 10:11:14;;;;;;;28.17;15.85;;;;;;;1.86;63.60;102418.58;1847692;76;22804;-57
2023/02/10 10:14:45;;;;;;;33.80;15.58;;;;;;;1.83;63.34;102413.79;1804353;78;21260;-56
2023/02/10 10:18:38;;;;;;;32.15;16.82;;;;;;;1.85;63.27;102410.56;1804433;79;21397;-57
2023/02/10 10:22:25;;;;;;;28.75;14.78;;;;;;;1.99;63.39;102401.33;1805193;79;21868;-57
2023/02/10 10:26:20;;;;;;;28.45;15.35;;;;;;;2.18;63.40;102406.27;1802783;78;21271;-57
2023/02/10 10:30:02;;;;;;;36.28;16.65;;;;;;;2.33;63.42;102401.49;1805075;78;21184;-56
2023/02/10 10:33:35;;;;;;;36.58;17.35;;;;;;;2.46;63.23;102391.81;1786929;79;21761;-56
2023/02/10 10:37:14;;;;;;;28.92;15.23;;;;;;;2.59;63.25;102389.80;1798886;79;21534;-56
2023/02/10 10:41:40;;;;;;;27.37;14.43;;;;;;;2.71;63.17;102378.85;1573838;86;22030;-56
2023/02/10 10:44:59;;;;;;;28.80;14.75;;;;;;;2.85;63.01;102383.08;1692290;84;21243;-55
2023/02/10 10:48:26;;;;;;;31.37;15.30;;;;;;;2.96;62.90;102370.77;1700813;83;21186;-57
2023/02/10 10:51:53;;;;;;;25.15;15.00;;;;;;;3.01;62.60;102376.78;1703178;84;21351;-56
2023/02/10 10:55:39;;;;;;;29.10;15.65;;;;;;;3.04;62.43;102360.89;1690723;84;21370;-57
2023/02/10 10:59:30;;;;;;;25.60;14.45;;;;;;;2.99;62.12;102360.25;1668086;85;21450;-58
2023/02/10 11:03:03;;;;;;;28.60;15.25;;;;;;;3.02;62.25;102356.92;1673974;85;21230;-57
2023/02/10 11:06:25;;;;;;;28.83;15.10;;;;;;;3.11;62.35;102359.60;1672118;85;21629;-58
2023/02/10 11:10:51;;;;;;;28.15;15.18;;;;;;;3.26;62.35;102357.92;1668225;85;21226;-56
2023/02/10 11:22:02;;;;;;;32.53;14.95;;;;;;;3.71;62.11;102341.92;1693837;80;21387;-57
2023/02/10 11:29:31;;;;;;;29.18;16.00;;;;;;;3.88;61.57;102321.53;1833387;76;22830;-56
2023/02/10 11:51:40;;;;;;;27.98;15.35;;;;;;;4.15;61.00;102294.23;1910627;73;22179;-58
2023/02/10 11:55:21;;;;;;;28.92;15.45;;;;;;;4.14;61.14;102293.34;1759419;77;21208;-59
2023/02/10 11:59:09;;;;;;;27.65;15.53;;;;;;;4.37;61.20;102292.90;1833057;74;22413;-59
2023/02/10 12:06:42;;;;;;;30.55;16.23;;;;;;;4.63;61.36;102299.00;1748851;77;21251;-58
2023/02/10 12:14:06;;;;;;;32.05;16.67;;;;;;;4.96;61.07;102291.16;1802932;79;21698;-57
2023/02/10 12:17:59;;;;;;;30.68;17.05;;;;;;;5.04;60.88;102288.38;1804725;79;21221;-57
2023/02/10 12:22:13;;;;;;;39.85;20.30;;;;;;;5.06;60.68;102286.41;1756086;81;21240;-58
2023/02/10 12:39:19;;;;;;;36.60;18.50;;;;;;;4.87;60.18;102279.01;1754245;78;21228;-58
2023/02/10 12:43:30;;;;;;;35.60;18.67;;;;;;;4.94;60.23;102282.22;1723931;79;21360;-57
2023/02/10 12:47:51;;;;;;;33.63;18.73;;;;;;;4.89;60.07;102281.16;1751222;77;21146;-57
2023/02/10 12:52:20;;;;;;;29.12;15.95;;;;;;;5.02;60.20;102267.70;1711373;79;21224;-58
2023/02/10 12:56:12;;;;;;;23.10;14.98;;;;;;;5.08;59.98;102269.56;1723590;79;21857;-57
2023/02/10 12:59:58;;;;;;;25.52;14.55;;;;;;;5.09;59.80;102274.52;1760759;77;21609;-57
2023/02/10 13:12:17;;;;;;;26.27;16.87;;;;;;;5.20;59.65;102253.85;1853316;76;22194;-57
2023/02/10 13:16:23;;;;;;;26.05;15.25;;;;;;;5.11;59.55;102260.34;1733922;81;22065;-57
2023/02/10 13:28:11;;;;;;;20.62;12.82;;;;;;;5.20;59.63;102259.28;1769204;80;21351;-58
2023/02/10 13:33:01;;;;;;;22.52;12.75;;;;;;;5.31;59.65;102257.27;1767833;79;21389;-57
2023/02/10 13:36:30;;;;;;;17.87;9.85;;;;;;;5.38;59.57;102256.78;1750905;79;21228;-56
2023/02/10 13:40:09;;;;;;;12.00;7.72;;;;;;;5.43;59.46;102252.41;1776960;79;21227;-56
2023/02/10 13:43:43;;;;;;;8.83;4.20;;;;;;;5.44;59.42;102248.23;1690971;81;21248;-56
2023/02/10 13:47:44;;;;;;;11.33;5.65;;;;;;;5.42;59.26;102253.39;1717367;83;21688;-56
2023/02/10 13:51:18;;;;;;;18.45;7.55;;;;;;;5.25;58.97;102242.73;1667156;84;21258;-57
2023/02/10 13:55:12;;;;;;;13.35;7.00;;;;;;;5.22;59.05;102242.89;1771464;80;21555;-56
2023/02/10 13:58:45;;;;;;;17.23;7.75;;;;;;;5.23;58.92;102248.73;1765880;81;21185;-56
2023/02/10 14:02:39;;;;;;;14.58;6.97;;;;;;;5.20;58.79;102250.28;1714827;83;21358;-56
2023/02/10 14:06:13;;;;;;;18.67;9.25;;;;;;;5.15;58.64;102244.27;1702413;77;21245;-57
2023/02/10 14:09:46;;;;;;;18.52;9.33;;;;;;;5.08;58.49;102241.53;1658155;83;21477;-56
2023/02/10 14:13:41;;;;;;;15.68;8.63;;;;;;;5.02;58.43;102248.70;1689087;83;21236;-56
2023/02/10 14:17:24;;;;;;;16.27;9.23;;;;;;;4.91;58.27;102243.06;1661991;85;21708;-56
2023/02/10 14:21:09;;;;;;;10.58;6.78;;;;;;;4.81;58.12;102241.88;1665868;84;21516;-58
2023/02/10 14:25:10;;;;;;;23.02;12.07;;;;;;;4.70;57.98;102229.45;1711131;82;22098;-58
2023/02/10 14:28:59;;;;;;;22.07;10.98;;;;;;;4.55;57.79;102226.70;1720121;82;21338;-59
2023/02/10 14:32:18;;;;;;;23.05;11.55;;;;;;;4.40;57.59;102234.42;1712253;83;21568;-58
2023/02/10 14:36:12;;;;;;;60.00;30.15;;;;;;;4.26;57.55;102224.88;1699658;83;21325;-57
2023/02/10 14:40:02;;;;;;;15.25;8.13;;;;;;;4.19;57.42;102223.48;1684318;84;21240;-58
2023/02/10 14:43:33;;;;;;;18.48;9.75;;;;;;;4.05;57.19;102227.48;1700911;84;21797;-58
2023/02/10 14:46:58;;;;;;;22.70;12.63;;;;;;;3.86;56.96;102226.81;1702171;84;21260;-58
2023/02/10 14:50:31;;;;;;;20.55;12.07;;;;;;;3.66;56.80;102225.73;1702072;83;22260;-59
2023/02/10 14:54:00;;;;;;;33.45;13.32;;;;;;;3.43;56.63;102226.13;1704337;83;21253;-58
2023/02/10 14:57:28;;;;;;;35.15;13.90;;;;;;;3.17;56.43;102209.59;1717910;82;21220;-59
2023/02/10 15:01:28;;;;;;;26.00;15.03;;;;;;;2.85;56.11;102209.48;1728119;82;21210;-59
2023/02/10 15:05:23;;;;;;;25.40;13.35;;;;;;;2.51;55.85;102214.06;1724020;83;21375;-58
2023/02/10 15:09:31;;;;;;;26.97;12.45;;;;;;;2.20;55.82;102212.56;1729481;81;22012;-56
2023/02/10 15:13:21;;;;;;;29.98;14.30;;;;;;;2.01;56.05;102200.47;1725182;82;21534;-56
2023/02/10 15:20:39;;;;;;;26.65;13.38;;;;;;;1.47;55.74;102199.98;1738006;82;21495;-56
2023/02/10 15:24:44;;;;;;;28.35;13.95;;;;;;;1.29;55.70;102198.65;1749394;80;21168;-56
2023/02/10 15:28:11;;;;;;;24.90;13.58;;;;;;;1.17;55.94;102199.24;1770116;80;21231;-56
2023/02/10 15:31:45;;;;;;;33.28;16.73;;;;;;;1.09;56.11;102197.38;1776131;80;21200;-56
2023/02/10 15:34:58;;;;;;;32.05;16.48;;;;;;;0.96;56.13;102191.68;1745596;82;21310;-56
2023/02/10 15:38:25;;;;;;;32.95;16.73;;;;;;;0.87;56.15;102186.69;1746399;82;21819;-57
2023/02/10 15:42:07;;;;;;;35.45;18.75;;;;;;;0.74;56.07;102181.94;1722630;82;21255;-57
2023/02/10 15:45:31;;;;;;;32.83;19.45;;;;;;;0.60;55.97;102193.36;1731300;82;21205;-57
2023/02/10 15:48:50;;;;;;;36.58;19.55;;;;;;;0.50;56.02;102198.74;1773794;80;21191;-57
2023/02/10 15:52:11;;;;;;;34.65;19.52;;;;;;;0.41;56.15;102195.58;1775076;80;21737;-56
2023/02/10 15:55:46;;;;;;;35.33;18.95;;;;;;;0.37;56.25;102190.79;1775724;80;21231;-57
2023/02/10 15:59:00;;;;;;;39.90;21.50;;;;;;;0.32;56.26;102191.95;1777073;80;21210;-57
2023/02/10 16:02:20;;;;;;;37.75;20.62;;;;;;;0.27;56.23;102192.61;1775569;80;21344;-57
2023/02/10 16:05:35;;;;;;;42.93;23.02;;;;;;;0.21;56.18;102188.84;1778518;80;21192;-57
2023/02/10 16:08:48;;;;;;;;;;;;;;;0.16;56.16;102193.06;1713015;84;21299;-58
2023/02/10 16:12:02;;;;;;;52.65;24.75;;;;;;;0.09;56.13;102192.94;1747453;81;20206;-57
2023/02/10 16:15:22;;;;;;;39.48;21.17;;;;;;;0.02;56.22;102195.47;1751528;80;21187;-57
2023/02/10 16:18:47;;;;;;;34.63;18.40;;;;;;;-0.04;56.24;102187.20;1776621;80;21185;-57
2023/02/10 16:22:32;;;;;;;45.35;27.73;;;;;;;-0.11;56.13;102192.87;1776040;80;21634;-57
2023/02/10 16:25:35;;;;;;;38.35;21.55;;;;;;;-0.20;56.08;102190.13;1793437;77;21375;-58
2023/02/10 16:28:49;;;;;;;44.03;22.37;;;;;;;-0.28;56.07;102182.83;1764916;81;21813;-57
2023/02/10 16:32:06;;;;;;;34.35;19.32;;;;;;;-0.34;56.01;102181.75;1771530;81;21756;-58
2023/02/10 16:35:26;;;;;;;40.67;19.52;;;;;;;-0.41;56.00;102168.59;1732767;82;21228;-57
2023/02/10 16:38:44;;;;;;;37.30;18.48;;;;;;;-0.47;55.98;102163.01;1771242;80;21215;-58
2023/02/10 16:42:22;;;;;;;60.98;29.80;;;;;;;-0.54;55.94;102157.95;1751239;80;21241;-57
2023/02/10 16:46:27;;;;;;;49.58;24.40;;;;;;;-0.57;55.97;102175.56;1733640;82;21292;-58
2023/02/10 16:49:53;;;;;;;44.98;21.97;;;;;;;-0.64;56.00;102192.40;1748074;81;21204;-58
2023/02/10 16:53:19;;;;;;;28.77;16.75;;;;;;;-0.72;55.98;102192.28;1713250;82;21847;-57
2023/02/10 16:56:58;;;;;;;25.88;14.65;;;;;;;-0.84;55.88;102189.59;1758339;81;21700;-58
2023/02/10 17:00:25;;;;;;;26.05;14.90;;;;;;;-0.94;55.92;102187.34;1739903;81;21224;-58
2023/02/10 17:03:50;;;;;;;29.23;15.70;;;;;;;-1.01;55.89;102188.49;1757086;81;21750;-59
2023/02/10 17:07:04;;;;;;;26.15;14.95;;;;;;;-1.04;55.95;102186.81;1754449;81;21499;-58
2023/02/10 17:10:34;;;;;;;75.08;34.60;;;;;;;-1.02;56.01;102188.09;1759120;80;21340;-58
2023/02/10 17:14:02;;;;;;;22.75;13.40;;;;;;;-1.03;55.98;102192.59;1771416;81;21208;-59
2023/02/10 17:18:07;;;;;;;23.87;12.63;;;;;;;-1.07;55.89;102188.73;1772311;81;22023;-58
2023/02/10 17:22:02;;;;;;;21.15;12.58;;;;;;;-1.14;55.85;102184.55;1734535;82;21205;-58
2023/02/10 17:25:38;;;;;;;20.32;12.43;;;;;;;-1.21;55.84;102185.70;1737382;81;21206;-58
2023/02/10 17:29:08;;;;;;;20.95;13.35;;;;;;;-1.23;55.83;102181.73;1738257;82;21211;-57
2023/02/10 17:32:27;;;;;;;27.62;15.90;;;;;;;-1.24;55.81;102167.02;1738459;81;21219;-58
2023/02/10 17:35:48;;;;;;;23.70;14.30;;;;;;;-1.29;55.71;102172.56;1736325;82;21238;-58
2023/02/10 17:43:03;;;;;;;25.23;13.95;;;;;;;-1.35;55.61;102153.11;1883660;76;22250;-58
2023/02/10 17:46:38;;;;;;;31.02;15.40;;;;;;;-1.43;55.61;102146.69;1767427;80;21203;-59
2023/02/10 17:50:19;;;;;;;29.30;14.85;;;;;;;-1.43;55.64;102152.52;1768684;80;21368;-59
2023/02/10 17:53:54;;;;;;;58.10;29.85;;;;;;;-1.44;55.61;102157.48;1766542;81;21330;-57
2023/02/10 17:57:14;;;;;;;22.90;14.25;;;;;;;-1.45;55.63;102143.62;1766199;80;22023;-58
2023/02/10 18:00:48;;;;;;;23.32;14.60;;;;;;;-1.45;55.64;102135.58;1765867;81;21532;-59
2023/02/10 18:04:10;;;;;;;25.95;15.05;;;;;;;-1.43;55.61;102128.34;1765764;81;21725;-57
2023/02/10 18:07:35;;;;;;;29.65;14.70;;;;;;;-1.43;55.56;102132.38;1765912;81;21197;-58
2023/02/10 18:11:06;;;;;;;25.72;14.53;;;;;;;-1.43;55.51;102122.52;1765929;81;21220;-58
2023/02/10 18:14:33;;;;;;;24.82;14.45;;;;;;;-1.45;55.47;102119.00;1765322;80;21244;-57
2023/02/10 18:18:15;;;;;;;29.32;14.53;;;;;;;-1.45;55.46;102127.52;1717446;82;21221;-57
2023/02/10 18:21:55;;;;;;;29.23;15.05;;;;;;;-1.46;55.46;102129.80;1828099;77;21727;-57
2023/02/10 18:25:18;;;;;;;33.20;16.10;;;;;;;-1.51;55.46;102129.50;1824135;77;21290;-58
2023/02/10 18:28:38;;;;;;;31.37;14.85;;;;;;;-1.52;55.48;102123.33;1792856;79;21375;-58
2023/02/10 18:32:08;;;;;;;53.58;26.82;;;;;;;-1.55;55.42;102120.27;1808171;79;21330;-59
2023/02/10 18:35:51;;;;;;;34.38;16.93;;;;;;;-1.57;55.44;102118.13;1805728;78;21725;-58
2023/02/10 18:39:13;;;;;;;47.35;23.22;;;;;;;-1.60;55.43;102120.45;1807771;78;21330;-57
2023/02/10 18:42:39;;;;;;;43.73;20.20;;;;;;;-1.63;55.42;102114.31;1807845;79;21736;-57
2023/02/10 18:46:00;;;;;;;42.75;19.37;;;;;;;-1.66;55.41;102111.28;1811925;78;21275;-58
2023/02/10 18:49:19;;;;;;;38.33;20.57;;;;;;;-1.70;55.42;102094.86;1811763;78;21943;-57
2023/02/10 18:52:45;;;;;;;33.95;18.20;;;;;;;-1.71;55.35;102111.03;1807767;79;21188;-58